createdAt,value
2017-02-21T00:00:59.644Z,1000.83
2017-02-21T00:02:00.176Z,1000.84
2017-02-21T00:03:00.712Z,1000.82
2017-02-21T00:04:01.241Z,1000.81
2017-02-21T00:05:01.775Z,1000.82
2017-02-21T00:06:02.305Z,1000.85
2017-02-21T00:07:02.834Z,1000.83
2017-02-21T00:08:03.363Z,1000.83
2017-02-21T00:09:03.901Z,1000.85
2017-02-21T00:10:04.431Z,1000.83
2017-02-21T00:11:04.971Z,1000.81
2017-02-21T00:12:05.502Z,1000.87
2017-02-21T00:13:06.041Z,1000.90
2017-02-21T00:14:06.567Z,1000.92
2017-02-21T00:15:07.101Z,1000.90
2017-02-21T00:16:07.641Z,1000.91
2017-02-21T00:17:08.173Z,1000.90
2017-02-21T00:18:08.720Z,1000.93
2017-02-21T00:19:09.239Z,1000.93
2017-02-21T00:20:09.777Z,1000.94
2017-02-21T00:21:10.309Z,1000.89
2017-02-21T00:22:10.842Z,1000.89
2017-02-21T00:23:11.371Z,1000.87
2017-02-21T00:24:11.903Z,1000.87
2017-02-21T00:25:12.438Z,1000.86
2017-02-21T00:26:12.973Z,1000.88
2017-02-21T00:27:13.512Z,1000.87
2017-02-21T00:28:14.030Z,1000.85
2017-02-21T00:29:14.563Z,1000.87
2017-02-21T00:30:15.096Z,1000.88
2017-02-21T00:31:15.633Z,1000.83
2017-02-21T00:32:16.160Z,1000.81
2017-02-21T00:33:16.707Z,1000.87
2017-02-21T00:34:17.227Z,1000.86
2017-02-21T00:35:17.761Z,1000.88
2017-02-21T00:36:18.295Z,1000.87
2017-02-21T00:37:18.828Z,1000.82
2017-02-21T00:38:19.364Z,1000.78
2017-02-21T00:39:19.894Z,1000.81
2017-02-21T00:40:20.421Z,1000.74
2017-02-21T00:41:20.956Z,1000.78
2017-02-21T00:42:21.488Z,1000.77
2017-02-21T00:43:22.030Z,1000.80
2017-02-21T00:44:22.552Z,1000.76
2017-02-21T00:45:23.085Z,1000.74
2017-02-21T00:46:23.613Z,1000.75
2017-02-21T00:47:24.137Z,1000.80
2017-02-21T00:48:24.675Z,1000.72
2017-02-21T00:49:25.208Z,1000.77
2017-02-21T00:50:25.732Z,1000.73
2017-02-21T00:51:26.262Z,1000.73
2017-02-21T00:52:26.944Z,1000.75
2017-02-21T00:53:27.326Z,1000.69
2017-02-21T00:54:27.864Z,1000.71
2017-02-21T00:55:28.397Z,1000.72
2017-02-21T00:56:28.927Z,1000.69
2017-02-21T00:57:29.464Z,1000.71
2017-02-21T00:58:30.003Z,1000.68
2017-02-21T00:59:30.541Z,1000.71
2017-02-21T01:00:31.221Z,1000.68
2017-02-21T01:01:31.610Z,1000.74
2017-02-21T01:02:32.146Z,1000.74
2017-02-21T01:03:32.675Z,1000.75
2017-02-21T01:04:33.204Z,1000.75
2017-02-21T01:05:33.739Z,1000.70
2017-02-21T01:06:34.265Z,1000.73
2017-02-21T01:07:34.799Z,1000.73
2017-02-21T01:08:35.333Z,1000.69
2017-02-21T01:09:35.860Z,1000.69
2017-02-21T01:10:36.391Z,1000.67
2017-02-21T01:11:36.928Z,1000.66
2017-02-21T01:12:37.457Z,1000.63
2017-02-21T01:13:37.987Z,1000.62
2017-02-21T01:14:38.526Z,1000.69
2017-02-21T01:15:39.051Z,1000.67
2017-02-21T01:16:39.589Z,1000.66
2017-02-21T01:17:40.119Z,1000.62
2017-02-21T01:18:40.650Z,1000.64
2017-02-21T01:19:41.182Z,1000.68
2017-02-21T01:20:41.713Z,1000.69
2017-02-21T01:21:42.246Z,1000.71
2017-02-21T01:22:42.778Z,1000.67
2017-02-21T01:23:43.461Z,1000.67
2017-02-21T01:24:43.844Z,1000.68
2017-02-21T01:25:44.372Z,1000.66
2017-02-21T01:26:44.911Z,1000.63
2017-02-21T01:27:45.439Z,1000.63
2017-02-21T01:28:45.970Z,1000.59
2017-02-21T01:29:46.531Z,1000.65
2017-02-21T01:30:47.036Z,1000.55
2017-02-21T01:31:47.563Z,1000.57
2017-02-21T01:32:48.100Z,1000.53
2017-02-21T01:33:48.628Z,1000.53
2017-02-21T01:34:49.157Z,1000.60
2017-02-21T01:35:49.689Z,1000.58
2017-02-21T01:36:50.220Z,1000.57
2017-02-21T01:37:50.756Z,1000.59
2017-02-21T01:38:51.288Z,1000.59
2017-02-21T01:39:51.821Z,1000.62
2017-02-21T01:40:52.365Z,1000.60
2017-02-21T01:41:52.898Z,1000.66
2017-02-21T01:42:53.437Z,1000.57
2017-02-21T01:43:53.966Z,1000.59
2017-02-21T01:44:54.508Z,1000.60
2017-02-21T01:45:55.038Z,1000.58
2017-02-21T01:46:55.568Z,1000.59
2017-02-21T01:47:56.107Z,1000.60
2017-02-21T01:48:56.636Z,1000.60
2017-02-21T01:49:57.173Z,1000.59
2017-02-21T01:50:57.703Z,1000.58
2017-02-21T01:51:58.240Z,1000.61
2017-02-21T01:52:58.763Z,1000.58
2017-02-21T01:53:59.287Z,1000.54
2017-02-21T01:54:59.826Z,1000.55
2017-02-21T01:56:00.357Z,1000.51
2017-02-21T01:57:00.890Z,1000.46
2017-02-21T01:58:01.417Z,1000.48
2017-02-21T01:59:01.957Z,1000.50
2017-02-21T02:00:02.489Z,1000.49
2017-02-21T02:01:03.016Z,1000.49
2017-02-21T02:02:03.700Z,1000.51
2017-02-21T02:03:04.082Z,1000.52
2017-02-21T02:04:04.614Z,1000.48
2017-02-21T02:05:05.148Z,1000.55
2017-02-21T02:06:05.678Z,1000.59
2017-02-21T02:07:06.213Z,1000.57
2017-02-21T02:08:06.747Z,1000.56
2017-02-21T02:09:07.276Z,1000.55
2017-02-21T02:10:07.810Z,1000.48
2017-02-21T02:11:08.341Z,1000.58
2017-02-21T02:12:08.876Z,1000.64
2017-02-21T02:13:09.405Z,1000.68
2017-02-21T02:14:09.935Z,1000.67
2017-02-21T02:15:10.469Z,1000.75
2017-02-21T02:16:11.010Z,1000.73
2017-02-21T02:17:11.541Z,1000.70
2017-02-21T02:18:12.063Z,1000.70
2017-02-21T02:19:12.591Z,1000.72
2017-02-21T02:20:13.127Z,1000.68
2017-02-21T02:21:13.663Z,1000.72
2017-02-21T02:22:14.195Z,1000.69
2017-02-21T02:23:14.735Z,1000.66
2017-02-21T02:24:15.271Z,1000.67
2017-02-21T02:25:15.809Z,1000.68
2017-02-21T02:26:16.341Z,1000.72
2017-02-21T02:27:16.876Z,1000.62
2017-02-21T02:28:17.405Z,1000.61
2017-02-21T02:29:17.945Z,1000.62
2017-02-21T02:30:18.478Z,1000.62
2017-02-21T02:31:19.010Z,1000.61
2017-02-21T02:32:19.545Z,1000.59
2017-02-21T02:33:20.072Z,1000.59
2017-02-21T02:34:20.603Z,1000.59
2017-02-21T02:35:21.138Z,1000.57
2017-02-21T02:36:21.670Z,1000.55
2017-02-21T02:37:22.199Z,1000.52
2017-02-21T02:38:22.734Z,1000.50
2017-02-21T02:39:23.267Z,1000.57
2017-02-21T02:40:23.798Z,1000.53
2017-02-21T02:41:24.331Z,1000.59
2017-02-21T02:42:24.865Z,1000.56
2017-02-21T02:43:25.395Z,1000.53
2017-02-21T02:44:25.920Z,1000.57
2017-02-21T02:45:26.463Z,1000.55
2017-02-21T02:46:26.997Z,1000.51
2017-02-21T02:47:27.521Z,1000.52
2017-02-21T02:48:28.057Z,1000.58
2017-02-21T02:49:28.732Z,1000.55
2017-02-21T02:50:29.112Z,1000.55
2017-02-21T02:51:29.651Z,1000.55
2017-02-21T02:52:30.332Z,1000.59
2017-02-21T02:53:30.716Z,1000.52
2017-02-21T02:54:31.256Z,1000.51
2017-02-21T02:55:31.780Z,1000.51
2017-02-21T02:56:32.311Z,1000.51
2017-02-21T02:57:32.845Z,1000.47
2017-02-21T02:58:33.377Z,1000.46
2017-02-21T02:59:33.904Z,1000.46
2017-02-21T03:00:34.459Z,1000.51
2017-02-21T03:01:34.969Z,1000.38
2017-02-21T03:02:35.498Z,1000.33
2017-02-21T03:03:36.033Z,1000.38
2017-02-21T03:04:36.717Z,1000.39
2017-02-21T03:05:37.107Z,1000.46
2017-02-21T03:06:37.642Z,1000.44
2017-02-21T03:07:38.172Z,1000.44
2017-02-21T03:08:38.708Z,1000.46
2017-02-21T03:09:39.241Z,1000.48
2017-02-21T03:10:39.773Z,1000.48
2017-02-21T03:11:40.306Z,1000.52
2017-02-21T03:12:40.834Z,1000.44
2017-02-21T03:13:41.372Z,1000.44
2017-02-21T03:14:41.916Z,1000.39
2017-02-21T03:15:42.433Z,1000.44
2017-02-21T03:16:42.965Z,1000.46
2017-02-21T03:17:43.496Z,1000.41
2017-02-21T03:18:44.179Z,1000.46
2017-02-21T03:19:44.560Z,1000.42
2017-02-21T03:20:45.091Z,1000.46
2017-02-21T03:21:45.622Z,1000.45
2017-02-21T03:22:46.151Z,1000.43
2017-02-21T03:23:46.686Z,1000.47
2017-02-21T03:24:47.368Z,1000.47
2017-02-21T03:25:47.750Z,1000.51
2017-02-21T03:26:48.285Z,1000.49
2017-02-21T03:27:48.819Z,1000.47
2017-02-21T03:28:49.495Z,1000.50
2017-02-21T03:29:49.877Z,1000.49
2017-02-21T03:30:50.410Z,1000.51
2017-02-21T03:31:50.943Z,1000.49
2017-02-21T03:32:51.474Z,1000.51
2017-02-21T03:33:52.007Z,1000.53
2017-02-21T03:34:52.543Z,1000.47
2017-02-21T03:35:53.074Z,1000.49
2017-02-21T03:36:53.754Z,1000.50
2017-02-21T03:37:54.139Z,1000.45
2017-02-21T03:38:54.672Z,1000.44
2017-02-21T03:39:55.202Z,1000.43
2017-02-21T03:40:55.733Z,1000.41
2017-02-21T03:41:56.264Z,1000.41
2017-02-21T03:42:56.798Z,1000.46
2017-02-21T03:43:57.328Z,1000.49
2017-02-21T03:44:57.857Z,1000.47
2017-02-21T03:45:58.398Z,1000.46
2017-02-21T03:46:58.933Z,1000.45
2017-02-21T03:47:59.468Z,1000.44
2017-02-21T03:49:00.152Z,1000.50
2017-02-21T03:50:00.535Z,1000.40
2017-02-21T03:51:01.069Z,1000.48
2017-02-21T03:52:01.599Z,1000.47
2017-02-21T03:53:02.282Z,1000.50
2017-02-21T03:54:02.670Z,1000.47
2017-02-21T03:55:03.227Z,1000.46
2017-02-21T03:56:03.735Z,1000.49
2017-02-21T03:57:04.269Z,1000.46
2017-02-21T03:58:04.802Z,1000.48
2017-02-21T03:59:05.344Z,1000.50
2017-02-21T04:00:05.861Z,1000.48
2017-02-21T04:01:06.393Z,1000.44
2017-02-21T04:02:06.930Z,1000.38
2017-02-21T04:03:07.463Z,1000.46
2017-02-21T04:04:07.993Z,1000.51
2017-02-21T04:05:08.521Z,1000.47
2017-02-21T04:06:09.063Z,1000.44
2017-02-21T04:07:09.589Z,1000.46
2017-02-21T04:08:10.128Z,1000.42
2017-02-21T04:09:10.658Z,1000.47
2017-02-21T04:10:11.192Z,1000.44
2017-02-21T04:11:11.722Z,1000.48
2017-02-21T04:12:12.256Z,1000.54
2017-02-21T04:13:12.790Z,1000.52
2017-02-21T04:14:13.323Z,1000.51
2017-02-21T04:15:13.854Z,1000.57
2017-02-21T04:16:14.397Z,1000.58
2017-02-21T04:17:14.927Z,1000.59
2017-02-21T04:18:15.454Z,1000.63
2017-02-21T04:19:16.133Z,1000.64
2017-02-21T04:20:16.521Z,1000.56
2017-02-21T04:21:17.062Z,1000.57
2017-02-21T04:22:17.589Z,1000.50
2017-02-21T04:23:18.120Z,1000.50
2017-02-21T04:24:18.653Z,1000.43
2017-02-21T04:25:19.181Z,1000.46
2017-02-21T04:26:19.717Z,1000.41
2017-02-21T04:27:20.253Z,1000.48
2017-02-21T04:28:20.785Z,1000.47
2017-02-21T04:29:21.322Z,1000.47
2017-02-21T04:30:21.859Z,1000.39
2017-02-21T04:31:22.395Z,1000.59
2017-02-21T04:32:22.921Z,1000.59
2017-02-21T04:33:23.453Z,1000.57
2017-02-21T04:34:23.988Z,1000.52
2017-02-21T04:35:24.516Z,1000.49
2017-02-21T04:36:25.053Z,1000.50
2017-02-21T04:37:25.587Z,1000.51
2017-02-21T04:38:26.122Z,1000.48
2017-02-21T04:39:26.652Z,1000.45
2017-02-21T04:40:27.330Z,1000.44
2017-02-21T04:41:27.716Z,1000.44
2017-02-21T04:42:28.394Z,1000.41
2017-02-21T04:43:28.778Z,1000.22
2017-02-21T04:44:29.311Z,1000.25
2017-02-21T04:45:29.848Z,1000.24
2017-02-21T04:46:30.527Z,1000.35
2017-02-21T04:47:30.906Z,1000.47
2017-02-21T04:48:31.447Z,1000.64
2017-02-21T04:49:31.972Z,1000.62
2017-02-21T04:50:32.499Z,1000.60
2017-02-21T04:51:33.032Z,1000.63
2017-02-21T04:52:33.569Z,1000.59
2017-02-21T04:53:34.101Z,1000.69
2017-02-21T04:54:34.630Z,1000.67
2017-02-21T04:55:35.162Z,1000.74
2017-02-21T04:56:35.695Z,1000.74
2017-02-21T04:57:36.231Z,1000.70
2017-02-21T04:58:36.773Z,1000.63
2017-02-21T04:59:37.286Z,1000.72
2017-02-21T05:00:37.829Z,1000.72
2017-02-21T05:01:38.352Z,1000.75
2017-02-21T05:02:38.895Z,1000.73
2017-02-21T05:03:39.425Z,1000.69
2017-02-21T05:04:39.956Z,1000.65
2017-02-21T05:05:40.494Z,1000.59
2017-02-21T05:06:41.035Z,1000.63
2017-02-21T05:07:41.562Z,1000.57
2017-02-21T05:08:42.100Z,1000.65
2017-02-21T05:09:42.629Z,1000.57
2017-02-21T05:10:43.170Z,1000.59
2017-02-21T05:11:43.707Z,1000.57
2017-02-21T05:12:44.243Z,1000.61
2017-02-21T05:13:44.771Z,1000.66
2017-02-21T05:14:45.300Z,1000.65
2017-02-21T05:15:45.982Z,1000.69
2017-02-21T05:16:46.365Z,1000.68
2017-02-21T05:17:46.897Z,1000.64
2017-02-21T05:18:47.431Z,1000.68
2017-02-21T05:19:47.963Z,1000.67
2017-02-21T05:20:48.497Z,1000.57
2017-02-21T05:21:49.037Z,1000.58
2017-02-21T05:22:49.564Z,1000.48
2017-02-21T05:23:50.119Z,1000.54
2017-02-21T05:24:50.625Z,1000.55
2017-02-21T05:25:51.161Z,1000.49
2017-02-21T05:26:51.694Z,1000.43
2017-02-21T05:27:52.226Z,1000.53
2017-02-21T05:28:52.758Z,1000.55
2017-02-21T05:29:53.291Z,1000.56
2017-02-21T05:30:53.824Z,1000.59
2017-02-21T05:31:54.363Z,1000.67
2017-02-21T05:32:54.891Z,1000.73
2017-02-21T05:33:55.423Z,1000.80
2017-02-21T05:34:55.952Z,1000.72
2017-02-21T05:35:56.483Z,1000.69
2017-02-21T05:36:57.016Z,1000.71
2017-02-21T05:37:57.548Z,1000.72
2017-02-21T05:38:58.081Z,1000.74
2017-02-21T05:39:58.615Z,1000.73
2017-02-21T05:40:59.143Z,1000.76
2017-02-21T05:41:59.676Z,1000.72
2017-02-21T05:43:00.207Z,1000.77
2017-02-21T05:44:00.740Z,1000.84
2017-02-21T05:45:01.290Z,1000.75
2017-02-21T05:46:01.961Z,1000.85
2017-02-21T05:47:02.342Z,1000.84
2017-02-21T05:48:02.877Z,1000.82
2017-02-21T05:49:03.410Z,1000.84
2017-02-21T05:50:03.948Z,1000.87
2017-02-21T05:51:04.478Z,1000.97
2017-02-21T05:52:05.011Z,1000.91
2017-02-21T05:53:05.546Z,1000.97
2017-02-21T05:54:06.086Z,1000.94
2017-02-21T05:55:06.615Z,1000.95
2017-02-21T05:56:07.182Z,1000.90
2017-02-21T05:57:07.676Z,1000.89
2017-02-21T05:58:08.357Z,1000.88
2017-02-21T05:59:08.741Z,1000.86
2017-02-21T06:00:09.275Z,1000.90
2017-02-21T06:01:09.801Z,1000.96
2017-02-21T06:02:10.329Z,1000.98
2017-02-21T06:03:10.871Z,1000.93
2017-02-21T06:04:11.546Z,1000.96
2017-02-21T06:05:11.928Z,1000.92
2017-02-21T06:06:12.459Z,1000.91
2017-02-21T06:07:12.994Z,1000.93
2017-02-21T06:08:13.525Z,1000.99
2017-02-21T06:09:14.057Z,1000.94
2017-02-21T06:10:14.589Z,1000.98
2017-02-21T06:11:15.121Z,1000.92
2017-02-21T06:12:15.653Z,1000.94
2017-02-21T06:13:16.183Z,1000.90
2017-02-21T06:14:16.730Z,1000.99
2017-02-21T06:15:17.397Z,1000.96
2017-02-21T06:16:17.787Z,1001.04
2017-02-21T06:17:18.315Z,1001.11
2017-02-21T06:18:18.850Z,1001.13
2017-02-21T06:19:19.376Z,1001.09
2017-02-21T06:20:19.908Z,1001.23
2017-02-21T06:21:20.434Z,1001.24
2017-02-21T06:22:20.966Z,1001.20
2017-02-21T06:23:21.500Z,1001.27
2017-02-21T06:24:22.042Z,1001.21
2017-02-21T06:25:22.561Z,1001.28
2017-02-21T06:26:23.093Z,1001.31
2017-02-21T06:27:23.637Z,1001.33
2017-02-21T06:28:24.164Z,1001.33
2017-02-21T06:29:24.693Z,1001.42
2017-02-21T06:30:25.236Z,1001.41
2017-02-21T06:31:25.761Z,1001.45
2017-02-21T06:32:26.296Z,1001.49
2017-02-21T06:33:26.834Z,1001.45
2017-02-21T06:34:27.369Z,1001.51
2017-02-21T06:35:27.907Z,1001.44
2017-02-21T06:36:28.474Z,1001.50
2017-02-21T06:37:28.973Z,1001.45
2017-02-21T06:38:29.500Z,1001.50
2017-02-21T06:39:30.033Z,1001.47
2017-02-21T06:41:31.092Z,1001.50
2017-02-21T06:42:31.622Z,1001.55
2017-02-21T06:43:32.154Z,1001.56
2017-02-21T06:44:32.835Z,1001.52
2017-02-21T06:45:33.216Z,1001.49
2017-02-21T06:46:33.754Z,1001.57
2017-02-21T06:47:34.282Z,1001.54
2017-02-21T06:48:34.817Z,1001.63
2017-02-21T06:49:35.342Z,1001.71
2017-02-21T06:50:35.874Z,1001.62
2017-02-21T06:51:36.410Z,1001.71
2017-02-21T06:52:37.091Z,1001.68
2017-02-21T06:53:37.481Z,1001.56
2017-02-21T06:54:38.007Z,1001.61
2017-02-21T06:55:38.538Z,1001.73
2017-02-21T06:56:39.071Z,1001.74
2017-02-21T06:57:39.607Z,1001.85
2017-02-21T06:58:40.131Z,1001.79
2017-02-21T06:59:40.667Z,1001.82
2017-02-21T07:00:41.196Z,1001.84
2017-02-21T07:01:41.725Z,1001.87
2017-02-21T07:02:42.409Z,1001.84
2017-02-21T07:03:42.787Z,1001.87
2017-02-21T07:04:43.317Z,1001.88
2017-02-21T07:05:43.849Z,1001.85
2017-02-21T07:06:44.379Z,1001.88
2017-02-21T07:07:45.054Z,1001.94
2017-02-21T07:08:45.595Z,1001.97
2017-02-21T07:09:45.981Z,1002.08
2017-02-21T07:10:46.510Z,1002.07
2017-02-21T07:11:47.042Z,1001.98
2017-02-21T07:12:47.729Z,1001.97
2017-02-21T07:13:48.111Z,1001.99
2017-02-21T07:14:48.653Z,1002.02
2017-02-21T07:15:49.188Z,1001.98
2017-02-21T07:16:49.727Z,1001.99
2017-02-21T07:17:50.259Z,1001.96
2017-02-21T07:18:50.836Z,1002.04
2017-02-21T07:19:51.337Z,1002.01
2017-02-21T07:20:51.868Z,1002.03
2017-02-21T07:21:52.710Z,1001.96
2017-02-21T07:22:52.943Z,1001.93
2017-02-21T07:23:53.465Z,1001.97
2017-02-21T07:24:53.999Z,1002.04
2017-02-21T07:25:54.544Z,1002.06
2017-02-21T07:26:55.060Z,1002.03
2017-02-21T07:27:55.597Z,1001.97
2017-02-21T07:28:56.136Z,1002.05
2017-02-21T07:29:56.660Z,1002.05
2017-02-21T07:30:57.192Z,1002.09
2017-02-21T07:31:57.730Z,1002.09
2017-02-21T07:32:58.252Z,1001.98
2017-02-21T07:33:58.788Z,1002.03
2017-02-21T07:34:59.357Z,1002.08
2017-02-21T07:35:59.851Z,1002.04
2017-02-21T07:37:00.383Z,1002.12
2017-02-21T07:38:00.920Z,1002.11
2017-02-21T07:39:01.448Z,1002.18
2017-02-21T07:40:02.013Z,1002.20
2017-02-21T07:41:02.511Z,1002.17
2017-02-21T07:42:03.044Z,1002.09
2017-02-21T07:43:03.574Z,1002.17
2017-02-21T07:44:04.103Z,1002.12
2017-02-21T07:45:04.633Z,1002.20
2017-02-21T07:46:05.165Z,1002.22
2017-02-21T07:47:05.698Z,1002.18
2017-02-21T07:48:06.229Z,1002.14
2017-02-21T07:49:06.787Z,1002.08
2017-02-21T07:50:07.283Z,1002.06
2017-02-21T07:51:07.821Z,1002.10
2017-02-21T07:52:08.355Z,1002.14
2017-02-21T07:53:08.889Z,1002.20
2017-02-21T07:54:09.423Z,1002.21
2017-02-21T07:55:09.956Z,1002.28
2017-02-21T07:56:10.494Z,1002.31
2017-02-21T07:57:11.028Z,1002.29
2017-02-21T07:58:11.566Z,1002.26
2017-02-21T07:59:12.106Z,1002.19
2017-02-21T08:00:12.634Z,1002.24
2017-02-21T08:01:13.170Z,1002.21
2017-02-21T08:02:13.701Z,1002.30
2017-02-21T08:03:14.233Z,1002.30
2017-02-21T08:04:14.910Z,1002.25
2017-02-21T08:05:15.289Z,1002.34
2017-02-21T08:06:15.830Z,1002.40
2017-02-21T08:07:16.357Z,1002.33
2017-02-21T08:08:16.892Z,1002.30
2017-02-21T08:09:17.428Z,1002.34
2017-02-21T08:10:17.975Z,1002.29
2017-02-21T08:11:18.487Z,1002.28
2017-02-21T08:12:19.026Z,1002.32
2017-02-21T08:13:19.559Z,1002.30
2017-02-21T08:14:20.090Z,1002.37
2017-02-21T08:15:20.619Z,1002.41
2017-02-21T08:16:21.150Z,1002.37
2017-02-21T08:17:21.678Z,1002.50
2017-02-21T08:18:22.208Z,1002.43
2017-02-21T08:19:22.751Z,1002.42
2017-02-21T08:20:23.279Z,1002.45
2017-02-21T08:21:23.811Z,1002.49
2017-02-21T08:22:24.342Z,1002.41
2017-02-21T08:23:24.869Z,1002.51
2017-02-21T08:24:25.402Z,1002.46
2017-02-21T08:25:25.932Z,1002.41
2017-02-21T08:26:26.465Z,1002.41
2017-02-21T08:27:27.005Z,1002.40
2017-02-21T08:28:27.527Z,1002.50
2017-02-21T08:29:28.056Z,1002.47
2017-02-21T08:31:29.117Z,1002.42
2017-02-21T08:32:29.648Z,1002.46
2017-02-21T08:33:30.333Z,1002.43
2017-02-21T08:34:30.717Z,1002.47
2017-02-21T08:35:31.396Z,1002.47
2017-02-21T08:36:31.779Z,1002.43
2017-02-21T08:37:32.314Z,1002.48
2017-02-21T08:38:32.848Z,1002.41
2017-02-21T08:39:33.383Z,1002.46
2017-02-21T08:40:34.104Z,1002.45
2017-02-21T08:41:34.457Z,1002.43
2017-02-21T08:42:34.985Z,1002.36
2017-02-21T08:43:35.529Z,1002.39
2017-02-21T08:44:36.055Z,1002.33
2017-02-21T08:45:36.580Z,1002.37
2017-02-21T08:46:37.108Z,1002.37
2017-02-21T08:47:37.643Z,1002.51
2017-02-21T08:48:38.171Z,1002.49
2017-02-21T08:49:38.719Z,1002.49
2017-02-21T08:50:39.289Z,1002.52
2017-02-21T08:51:39.774Z,1002.47
2017-02-21T08:52:40.304Z,1002.52
2017-02-21T08:53:40.843Z,1002.56
2017-02-21T08:54:41.368Z,1002.57
2017-02-21T08:55:41.902Z,1002.59
2017-02-21T08:56:42.434Z,1002.55
2017-02-21T08:57:43.117Z,1002.57
2017-02-21T08:58:43.498Z,1002.64
2017-02-21T08:59:44.034Z,1002.65
2017-02-21T09:00:44.709Z,1002.65
2017-02-21T09:01:45.104Z,1002.70
2017-02-21T09:02:45.629Z,1002.74
2017-02-21T09:03:46.169Z,1002.77
2017-02-21T09:04:46.693Z,1002.63
2017-02-21T09:05:47.521Z,1002.72
2017-02-21T09:06:47.761Z,1002.65
2017-02-21T09:07:48.287Z,1002.64
2017-02-21T09:08:48.817Z,1002.73
2017-02-21T09:09:49.346Z,1002.73
2017-02-21T09:10:49.879Z,1002.72
2017-02-21T09:11:50.407Z,1002.74
2017-02-21T09:12:50.945Z,1002.70
2017-02-21T09:13:51.472Z,1002.64
2017-02-21T09:14:52.004Z,1002.69
2017-02-21T09:15:52.532Z,1002.65
2017-02-21T09:16:53.067Z,1002.72
2017-02-21T09:17:53.606Z,1002.67
2017-02-21T09:18:54.140Z,1002.76
2017-02-21T09:19:54.675Z,1002.76
2017-02-21T09:20:55.233Z,1002.74
2017-02-21T09:21:55.746Z,1002.74
2017-02-21T09:22:57.924Z,1002.81
2017-02-21T09:23:56.810Z,1002.79
2017-02-21T09:24:57.338Z,1002.77
2017-02-21T09:25:57.876Z,1002.83
2017-02-21T09:26:58.402Z,1002.85
2017-02-21T09:27:58.939Z,1002.81
2017-02-21T09:28:59.466Z,1002.81
2017-02-21T09:30:00.007Z,1002.89
2017-02-21T09:31:00.530Z,1002.91
2017-02-21T09:32:01.213Z,1002.92
2017-02-21T09:33:01.595Z,1002.94
2017-02-21T09:34:02.128Z,1003.08
2017-02-21T09:35:02.655Z,1002.95
2017-02-21T09:36:03.186Z,1003.09
2017-02-21T09:37:03.719Z,1002.98
2017-02-21T09:38:04.408Z,1003.00
2017-02-21T09:39:04.787Z,1002.98
2017-02-21T09:40:05.313Z,1002.92
2017-02-21T09:41:05.848Z,1002.96
2017-02-21T09:42:06.377Z,1003.04
2017-02-21T09:43:06.910Z,1002.98
2017-02-21T09:44:07.448Z,1003.08
2017-02-21T09:45:07.975Z,1003.07
2017-02-21T09:46:08.510Z,1003.14
2017-02-21T09:47:09.040Z,1003.18
2017-02-21T09:48:09.571Z,1003.10
2017-02-21T09:49:10.102Z,1003.13
2017-02-21T09:50:10.636Z,1003.20
2017-02-21T09:51:11.170Z,1003.10
2017-02-21T09:52:11.701Z,1003.24
2017-02-21T09:53:12.235Z,1003.04
2017-02-21T09:54:12.767Z,1003.11
2017-02-21T09:55:13.298Z,1003.09
2017-02-21T09:56:13.978Z,1003.11
2017-02-21T09:57:14.357Z,1003.24
2017-02-21T09:58:15.038Z,1003.19
2017-02-21T09:59:15.424Z,1003.22
2017-02-21T10:00:15.964Z,1003.01
2017-02-21T10:01:16.523Z,1003.27
2017-02-21T10:02:17.031Z,1003.30
2017-02-21T10:03:17.567Z,1003.38
2017-02-21T10:04:18.099Z,1003.35
2017-02-21T10:05:18.634Z,1003.30
2017-02-21T10:06:19.171Z,1003.41
2017-02-21T10:07:19.705Z,1003.26
2017-02-21T10:08:20.236Z,1003.36
2017-02-21T10:09:20.761Z,1003.36
2017-02-21T10:10:21.446Z,1003.33
2017-02-21T10:11:21.820Z,1003.34
2017-02-21T10:12:22.361Z,1003.24
2017-02-21T10:13:22.886Z,1003.42
2017-02-21T10:14:23.414Z,1003.34
2017-02-21T10:15:23.953Z,1003.33
2017-02-21T10:16:24.478Z,1003.43
2017-02-21T10:17:25.012Z,1003.45
2017-02-21T10:18:25.544Z,1003.34
2017-02-21T10:19:26.073Z,1003.32
2017-02-21T10:20:26.608Z,1003.28
2017-02-21T10:21:27.140Z,1003.35
2017-02-21T10:22:27.671Z,1003.32
2017-02-21T10:23:28.363Z,1003.33
2017-02-21T10:24:28.732Z,1003.37
2017-02-21T10:25:29.273Z,1003.46
2017-02-21T10:26:29.802Z,1003.56
2017-02-21T10:27:30.336Z,1003.46
2017-02-21T10:28:30.863Z,1003.42
2017-02-21T10:29:31.398Z,1003.47
2017-02-21T10:30:31.931Z,1003.51
2017-02-21T10:31:32.463Z,1003.44
2017-02-21T10:32:32.996Z,1003.63
2017-02-21T10:33:33.528Z,1003.47
2017-02-21T10:34:34.087Z,1003.43
2017-02-21T10:35:34.595Z,1003.40
2017-02-21T10:36:35.121Z,1003.46
2017-02-21T10:37:35.661Z,1003.48
2017-02-21T10:38:36.188Z,1003.40
2017-02-21T10:39:36.720Z,1003.47
2017-02-21T10:40:37.253Z,1003.48
2017-02-21T10:41:37.781Z,1003.44
2017-02-21T10:42:38.317Z,1003.46
2017-02-21T10:43:38.860Z,1003.38
2017-02-21T10:44:39.394Z,1003.53
2017-02-21T10:45:40.071Z,1003.41
2017-02-21T10:46:40.452Z,1003.49
2017-02-21T10:47:40.988Z,1003.46
2017-02-21T10:48:41.532Z,1003.42
2017-02-21T10:49:42.055Z,1003.47
2017-02-21T10:50:42.583Z,1003.51
2017-02-21T10:51:43.115Z,1003.49
2017-02-21T10:52:43.646Z,1003.50
2017-02-21T10:53:44.179Z,1003.53
2017-02-21T10:54:44.707Z,1003.47
2017-02-21T10:55:45.242Z,1003.48
2017-02-21T10:56:45.776Z,1003.52
2017-02-21T10:57:46.306Z,1003.47
2017-02-21T10:58:46.839Z,1003.49
2017-02-21T10:59:47.368Z,1003.48
2017-02-21T11:00:47.942Z,1003.56
2017-02-21T11:01:48.436Z,1003.57
2017-02-21T11:02:48.973Z,1003.53
2017-02-21T11:03:49.503Z,1003.59
2017-02-21T11:04:50.184Z,1003.56
2017-02-21T11:05:50.561Z,1003.54
2017-02-21T11:06:51.093Z,1003.54
2017-02-21T11:07:51.631Z,1003.51
2017-02-21T11:08:52.309Z,1003.61
2017-02-21T11:09:52.691Z,1003.67
2017-02-21T11:10:53.227Z,1003.49
2017-02-21T11:11:53.760Z,1003.55
2017-02-21T11:12:54.295Z,1003.56
2017-02-21T11:13:54.824Z,1003.56
2017-02-21T11:14:55.349Z,1003.61
2017-02-21T11:15:55.909Z,1003.63
2017-02-21T11:16:56.419Z,1003.50
2017-02-21T11:17:56.953Z,1003.46
2017-02-21T11:18:57.491Z,1003.54
2017-02-21T11:19:58.012Z,1003.55
2017-02-21T11:20:58.542Z,1003.54
2017-02-21T11:21:59.225Z,1003.60
2017-02-21T11:22:59.610Z,1003.60
2017-02-21T11:24:00.150Z,1003.64
2017-02-21T11:25:00.835Z,1003.56
2017-02-21T11:26:01.231Z,1003.54
2017-02-21T11:27:01.906Z,1003.60
2017-02-21T11:28:02.293Z,1003.50
2017-02-21T11:29:03.118Z,1003.48
2017-02-21T11:30:03.351Z,1003.53
2017-02-21T11:31:03.886Z,1003.54
2017-02-21T11:32:04.417Z,1003.59
2017-02-21T11:33:04.945Z,1003.62
2017-02-21T11:34:05.478Z,1003.60
2017-02-21T11:35:06.159Z,1003.57
2017-02-21T11:36:06.538Z,1003.64
2017-02-21T11:37:07.072Z,1003.64
2017-02-21T11:38:07.604Z,1003.64
2017-02-21T11:39:08.131Z,1003.59
2017-02-21T11:40:08.666Z,1003.60
2017-02-21T11:41:09.201Z,1003.69
2017-02-21T11:42:09.732Z,1003.66
2017-02-21T11:43:10.260Z,1003.66
2017-02-21T11:44:10.798Z,1003.67
2017-02-21T11:45:11.325Z,1003.68
2017-02-21T11:46:11.864Z,1003.62
2017-02-21T11:47:12.402Z,1003.68
2017-02-21T11:48:12.927Z,1003.62
2017-02-21T11:49:13.453Z,1003.63
2017-02-21T11:50:13.989Z,1003.70
2017-02-21T11:51:14.526Z,1003.64
2017-02-21T11:52:15.055Z,1003.63
2017-02-21T11:53:15.596Z,1003.76
2017-02-21T11:54:16.261Z,1003.68
2017-02-21T11:55:16.648Z,1003.64
2017-02-21T11:56:17.176Z,1003.68
2017-02-21T11:57:17.715Z,1003.62
2017-02-21T11:58:18.248Z,1003.63
2017-02-21T11:59:18.780Z,1003.74
2017-02-21T12:00:19.312Z,1003.69
2017-02-21T12:01:19.840Z,1003.70
2017-02-21T12:02:20.374Z,1003.74
2017-02-21T12:03:20.901Z,1003.64
2017-02-21T12:04:21.438Z,1003.67
2017-02-21T12:05:21.974Z,1003.61
2017-02-21T12:06:22.513Z,1003.62
2017-02-21T12:07:23.053Z,1003.64
2017-02-21T12:08:23.585Z,1003.75
2017-02-21T12:09:24.129Z,1003.73
2017-02-21T12:10:24.653Z,1003.73
2017-02-21T12:11:25.184Z,1003.69
2017-02-21T12:12:25.718Z,1003.75
2017-02-21T12:13:26.250Z,1003.74
2017-02-21T12:14:26.787Z,1003.74